Aviation Digital Data Service (ADDS)

Output produced by METARs form (0138 UTC 24 May 2019)
found at http://www.aviationweather.gov/metar/data/
 
LETO 240100Z 03007KT CAVOK 17/10 Q1014 NOSIG
TAF LETO 232300Z 2400/2424 02012KT CAVOK TX26/2415Z TN13/2405Z 
     TEMPO 2406/2421 03015G27KT 
     PROB30 
     TEMPO 2411/2418 FEW045TCU
       
LEZG 240130Z 30014KT 9999 -RA SCT060 BKN085 14/12 Q1016
TAF LEZG 232300Z 2400/2424 30015G26KT 9999 FEW050 TX23/2414Z TN13/2406Z 
     TEMPO 2400/2410 4000 SHRA BKN010 SCT020TCU 
     PROB40 
     TEMPO 2402/2409 3000 TSRA SCT020CB 
     TEMPO 2411/2418 31020G34KT
       
LERT 240100Z 32009KT 290V350 CAVOK 20/15 Q1015 NOSIG
TAF LERT 232300Z 2400/2409 33007KT CAVOK
       
LELC 240130Z AUTO 33004KT 9999 NCD 16/13 Q1013
TAF LELC 232300Z 2400/2424 34005KT CAVOK TX24/2411Z TN15/2406Z 
     BECMG 2409/2412 07014KT 
     PROB40 
     TEMPO 2417/2420 06016G26KT
       
LEAB 240100Z VRB02KT CAVOK 17/08 Q1015 NOSIG
TAF LEAB 232300Z 2400/2409 17007KT CAVOK 
     BECMG 2404/2405 VRB04KT 
     BECMG 2407/2408 03008KT
       
TAF LEBZ 232300Z 2400/2424 28009KT CAVOK TX31/2415Z TN14/2405Z 
     BECMG 2408/2410 35012KT
       
LEMO 240100Z 20004KT 170V230 CAVOK 17/11 Q1015 NOSIG
TAF LEMO 232300Z 2400/2409 21006KT CAVOK
       
LESA 240130Z AUTO 02004KT 350V050 8000 SCT033 SCT039 12/09 Q1018
TAF LESA 232300Z 2400/2424 34010KT CAVOK TX23/2415Z TN11/2406Z 
     BECMG 2400/2401 03012KT 
     PROB40 
     TEMPO 2409/2421 03015G25KT
       
GCLP 240130Z 01025G35KT 9999 FEW025 19/14 Q1016 WS ALL RWY NOSIG
TAF GCLP 232000Z 2321/2421 01025KT 9999 SCT025 TX25/2415Z TN19/2406Z 
     PROB40 
     TEMPO 2321/2421 36025G37KT
       
LIED 240055Z 30004KT CAVOK 14/13 Q1016 RMK SKC VIS MIN 9999 WIND THR35 29005KT WIND THR17 /////KT BLU
TAF LIED 231400Z 2315/2324 33012KT 9999 FEW020
       
LIPR 240120Z AUTO VRB01KT 9999 NCD 13/11 Q1014
TAF LIPR 232300Z 2400/2409 VRB05KT 9999 FEW040 
     TEMPO 2400/2406 3000 BR